createdAt,value
2018-07-12T00:00:18.991Z,17.90
2018-07-12T00:02:47.010Z,17.20
2018-07-12T00:05:15.056Z,15.60
2018-07-12T00:07:43.103Z,15.17
2018-07-12T00:10:11.148Z,18.03
2018-07-12T00:12:39.181Z,17.00
2018-07-12T00:15:08.010Z,17.57
2018-07-12T00:17:36.075Z,16.90
2018-07-12T00:20:04.379Z,17.10
2018-07-12T00:22:32.284Z,18.27
2018-07-12T00:25:00.411Z,20.63
2018-07-12T00:27:28.452Z,22.13
2018-07-12T00:29:56.516Z,19.00
2018-07-12T00:32:24.740Z,23.90
2018-07-12T00:34:53.105Z,22.60
2018-07-12T00:37:21.615Z,23.87
2018-07-12T00:39:50.092Z,21.40
2018-07-12T00:42:18.150Z,18.93
2018-07-12T00:44:46.191Z,19.77
2018-07-12T00:47:14.243Z,21.37
2018-07-12T00:49:42.312Z,22.40
2018-07-12T00:52:10.365Z,20.43
2018-07-12T00:54:38.420Z,23.40
2018-07-12T00:57:06.452Z,24.27
2018-07-12T00:59:34.519Z,25.50
2018-07-12T01:02:03.007Z,27.23
2018-07-12T01:04:31.108Z,34.30
2018-07-12T01:06:59.168Z,32.50
2018-07-12T01:09:27.216Z,37.43
2018-07-12T01:11:55.291Z,33.63
2018-07-12T01:14:23.392Z,32.20
2018-07-12T01:16:51.560Z,32.20
2018-07-12T01:19:19.622Z,34.50
2018-07-12T01:21:47.692Z,44.30
2018-07-12T01:24:15.731Z,57.23
2018-07-12T01:26:43.896Z,35.87
2018-07-12T01:29:11.955Z,36.63
2018-07-12T01:31:39.990Z,32.77
2018-07-12T01:34:08.035Z,45.77
2018-07-12T01:36:36.083Z,32.87
2018-07-12T01:39:04.922Z,39.80
2018-07-12T01:41:32.986Z,38.97
2018-07-12T01:44:01.043Z,32.37
2018-07-12T01:46:29.083Z,48.57
2018-07-12T01:48:57.139Z,30.00
2018-07-12T01:51:25.186Z,42.00
2018-07-12T01:53:53.238Z,39.00
2018-07-12T01:56:21.282Z,53.57
2018-07-12T01:58:49.559Z,73.40
2018-07-12T02:01:17.615Z,59.77
2018-07-12T02:03:45.669Z,64.77
2018-07-12T02:06:13.705Z,123.07
2018-07-12T02:08:41.763Z,63.60
2018-07-12T02:11:09.813Z,33.73
2018-07-12T02:13:38.234Z,53.90
2018-07-12T02:16:06.285Z,54.50
2018-07-12T02:18:34.335Z,32.93
2018-07-12T02:21:02.388Z,53.60
2018-07-12T02:23:30.471Z,43.23
2018-07-12T02:25:58.543Z,34.33
2018-07-12T02:28:26.587Z,40.83
2018-07-12T02:30:54.652Z,31.97
2018-07-12T02:33:22.707Z,41.83
2018-07-12T02:35:50.743Z,30.93
2018-07-12T02:38:24.833Z,32.77
2018-07-12T02:40:52.979Z,34.10
2018-07-12T02:43:21.017Z,30.03
2018-07-12T02:45:49.113Z,32.10
2018-07-12T02:48:17.154Z,30.83
2018-07-12T02:50:45.315Z,28.90
2018-07-12T02:53:13.359Z,30.70
2018-07-12T02:55:41.403Z,35.87
2018-07-12T02:58:09.468Z,30.67
2018-07-12T03:00:37.525Z,29.70
2018-07-12T03:03:05.561Z,34.03
2018-07-12T03:05:33.620Z,31.70
2018-07-12T03:08:01.786Z,34.53
2018-07-12T03:10:29.807Z,27.93
2018-07-12T03:12:57.874Z,26.33
2018-07-12T03:15:25.906Z,32.87
2018-07-12T03:17:53.940Z,29.47
2018-07-12T03:20:22.016Z,30.43
2018-07-12T03:22:50.044Z,31.03
2018-07-12T03:25:18.111Z,29.77
2018-07-12T03:27:46.157Z,29.10
2018-07-12T03:30:14.239Z,28.23
2018-07-12T03:32:42.279Z,37.23
2018-07-12T03:35:10.335Z,31.30
2018-07-12T03:37:38.401Z,31.67
2018-07-12T03:40:06.923Z,41.90
2018-07-12T03:42:35.339Z,32.60
2018-07-12T03:45:03.412Z,31.83
2018-07-12T03:47:31.482Z,35.60
2018-07-12T03:49:59.531Z,31.57
2018-07-12T03:52:27.598Z,33.47
2018-07-12T03:54:55.660Z,38.93
2018-07-12T03:57:23.702Z,34.80
2018-07-12T03:59:51.767Z,30.73
2018-07-12T04:02:19.779Z,34.50
2018-07-12T04:04:48.730Z,41.20
2018-07-12T04:07:16.743Z,32.93
2018-07-12T04:09:44.805Z,40.73
2018-07-12T04:12:12.868Z,41.23
2018-07-12T04:14:40.907Z,33.97
2018-07-12T04:17:08.991Z,32.77
2018-07-12T04:19:37.044Z,33.83
2018-07-12T04:22:05.100Z,33.33
2018-07-12T04:24:33.194Z,35.43
2018-07-12T04:27:01.231Z,35.43
2018-07-12T04:29:29.307Z,37.10
2018-07-12T04:31:57.367Z,44.03
2018-07-12T04:34:25.433Z,35.70
2018-07-12T04:36:53.667Z,34.07
2018-07-12T04:39:21.716Z,34.40
2018-07-12T04:41:49.787Z,38.30
2018-07-12T04:44:17.986Z,32.53
2018-07-12T04:46:46.072Z,37.17
2018-07-12T04:49:14.100Z,33.83
2018-07-12T04:51:42.207Z,33.50
2018-07-12T04:54:10.257Z,32.47
2018-07-12T04:56:38.330Z,33.60
2018-07-12T04:59:06.466Z,34.30
2018-07-12T05:01:34.559Z,32.33
2018-07-12T05:04:02.607Z,32.30
2018-07-12T05:06:30.682Z,33.80
2018-07-12T05:08:58.738Z,30.27
2018-07-12T05:11:26.803Z,30.30
2018-07-12T05:13:55.372Z,29.00
2018-07-12T05:16:23.776Z,27.47
2018-07-12T05:18:52.001Z,26.93
2018-07-12T05:21:20.052Z,27.20
2018-07-12T05:23:48.110Z,27.50
2018-07-12T05:26:16.139Z,24.77
2018-07-12T05:28:45.358Z,26.27
2018-07-12T05:31:13.298Z,27.27
2018-07-12T05:33:41.338Z,24.87
2018-07-12T05:36:18.013Z,26.20
2018-07-12T05:38:47.110Z,26.03
2018-07-12T05:41:16.224Z,26.90
2018-07-12T05:43:45.295Z,24.97
2018-07-12T05:46:14.443Z,23.80
2018-07-12T05:48:43.523Z,29.33
2018-07-12T05:51:12.628Z,26.87
2018-07-12T05:53:41.734Z,26.10
2018-07-12T05:56:10.804Z,27.00
2018-07-12T05:58:39.868Z,25.73
2018-07-12T06:01:20.377Z,27.07
2018-07-12T06:03:49.547Z,31.70
2018-07-12T06:06:18.608Z,27.83
2018-07-12T06:08:47.676Z,30.97
2018-07-12T06:11:16.839Z,32.33
2018-07-12T06:13:45.914Z,33.63
2018-07-12T06:16:14.988Z,31.27
2018-07-12T06:18:44.092Z,30.33
2018-07-12T06:21:13.354Z,31.60
2018-07-12T06:23:42.407Z,28.87
2018-07-12T06:26:11.475Z,26.30
2018-07-12T06:28:40.669Z,29.27
2018-07-12T06:31:09.812Z,29.17
2018-07-12T06:33:39.152Z,26.87
2018-07-12T06:36:08.229Z,27.87
2018-07-12T06:38:37.328Z,27.77
2018-07-12T06:41:06.756Z,27.10
2018-07-12T06:43:35.848Z,29.83
2018-07-12T06:46:05.144Z,29.53
2018-07-12T06:48:34.275Z,29.03
2018-07-12T06:51:03.390Z,29.50
2018-07-12T06:53:32.726Z,28.10
2018-07-12T06:56:01.797Z,28.63
2018-07-12T06:58:30.860Z,29.17
2018-07-12T07:00:59.934Z,27.30
2018-07-12T07:03:29.223Z,26.37
2018-07-12T07:05:58.321Z,26.83
2018-07-12T07:08:27.254Z,28.40
2018-07-12T07:10:56.235Z,28.37
2018-07-12T07:13:25.315Z,24.17
2018-07-12T07:15:54.366Z,23.50
2018-07-12T07:18:23.443Z,27.30
2018-07-12T07:20:52.540Z,25.70
2018-07-12T07:23:21.643Z,26.43
2018-07-12T07:25:50.748Z,26.93
2018-07-12T07:28:19.844Z,28.03
2018-07-12T07:30:48.931Z,25.90
2018-07-12T07:33:18.023Z,26.30
2018-07-12T07:35:47.601Z,25.57
2018-07-12T07:38:16.654Z,28.47
2018-07-12T07:40:45.731Z,24.47
2018-07-12T07:43:14.963Z,23.80
2018-07-12T07:45:43.908Z,22.43
2018-07-12T07:48:12.972Z,26.87
2018-07-12T07:50:42.055Z,25.37
2018-07-12T07:53:11.106Z,23.63
2018-07-12T07:55:40.184Z,21.60
2018-07-12T07:58:09.252Z,22.73
2018-07-12T08:00:38.344Z,24.43
2018-07-12T08:03:07.615Z,24.83
2018-07-12T08:05:36.723Z,24.10
2018-07-12T08:08:05.999Z,21.40
2018-07-12T08:10:35.091Z,23.13
2018-07-12T08:13:04.206Z,21.50
2018-07-12T08:15:33.296Z,21.57
2018-07-12T08:18:02.491Z,21.90
2018-07-12T08:20:31.598Z,22.43
2018-07-12T08:23:00.647Z,22.27
2018-07-12T08:25:29.783Z,21.77
2018-07-12T08:28:10.374Z,21.30
2018-07-12T08:30:39.603Z,21.77
2018-07-12T08:33:08.699Z,21.27
2018-07-12T08:35:37.972Z,20.10
2018-07-12T08:38:07.063Z,20.47
2018-07-12T08:40:36.065Z,21.27
2018-07-12T08:43:04.975Z,21.60
2018-07-12T08:45:34.078Z,20.30
2018-07-12T08:48:03.003Z,20.30
2018-07-12T08:50:31.967Z,18.73
2018-07-12T08:53:00.804Z,14.23
2018-07-12T08:55:29.596Z,15.40
2018-07-12T08:57:58.556Z,12.73
2018-07-12T09:00:27.726Z,18.10
2018-07-12T09:02:56.713Z,15.17
2018-07-12T09:05:25.728Z,16.50
2018-07-12T09:07:54.696Z,15.53
2018-07-12T09:10:23.688Z,16.10
2018-07-12T09:12:52.627Z,13.80
2018-07-12T09:15:21.576Z,13.20
2018-07-12T09:17:50.547Z,15.50
2018-07-12T09:20:19.511Z,10.37
2018-07-12T09:22:48.492Z,11.70
2018-07-12T09:25:17.465Z,12.60
2018-07-12T09:27:46.597Z,12.60
2018-07-12T09:30:15.646Z,10.83
2018-07-12T09:32:44.665Z,9.67
2018-07-12T09:35:13.632Z,14.77
2018-07-12T09:37:42.629Z,10.20
2018-07-12T09:40:11.692Z,9.60
2018-07-12T09:42:40.636Z,8.10
2018-07-12T09:45:09.616Z,11.87
2018-07-12T09:47:38.406Z,9.13
2018-07-12T09:50:07.211Z,8.97
2018-07-12T09:52:36.155Z,8.37
2018-07-12T09:55:05.103Z,9.17
2018-07-12T09:57:45.548Z,7.63
2018-07-12T10:00:15.111Z,8.07
2018-07-12T10:02:49.467Z,8.83
2018-07-12T10:05:23.895Z,8.63
2018-07-12T10:07:59.465Z,7.97
2018-07-12T10:10:30.826Z,8.90
2018-07-12T10:13:05.023Z,8.20
2018-07-12T10:15:39.427Z,9.10
2018-07-12T10:18:13.977Z,9.30
2018-07-12T10:20:43.102Z,7.77
2018-07-12T10:23:12.059Z,10.17
2018-07-12T10:25:41.035Z,11.53
2018-07-12T10:28:10.095Z,8.47
2018-07-12T10:30:39.099Z,9.67
2018-07-12T10:33:08.045Z,8.60
2018-07-12T10:35:37.006Z,6.63
2018-07-12T10:38:06.305Z,6.73
2018-07-12T10:40:35.268Z,6.97
2018-07-12T10:43:04.248Z,9.30
2018-07-12T10:45:33.207Z,10.07
2018-07-12T10:48:02.209Z,10.33
2018-07-12T10:50:31.163Z,7.57
2018-07-12T10:53:00.099Z,8.23
2018-07-12T10:55:29.163Z,6.73
2018-07-12T10:57:58.128Z,7.80
2018-07-12T11:00:27.368Z,7.30
2018-07-12T11:02:56.323Z,7.10
2018-07-12T11:05:25.284Z,9.00
2018-07-12T11:07:55.028Z,6.60
2018-07-12T11:10:23.871Z,14.90
2018-07-12T11:13:04.167Z,6.63
2018-07-12T11:15:33.237Z,6.60
2018-07-12T11:18:02.218Z,6.67
2018-07-12T11:20:31.242Z,8.17
2018-07-12T11:23:00.183Z,14.40
2018-07-12T11:25:29.543Z,6.27
2018-07-12T11:27:59.163Z,5.40
2018-07-12T11:30:28.064Z,6.00
2018-07-12T11:32:58.152Z,6.40
2018-07-12T11:35:27.111Z,8.23
2018-07-12T11:37:56.101Z,13.90
2018-07-12T11:40:25.061Z,5.87
2018-07-12T11:42:54.019Z,4.57
2018-07-12T11:45:22.971Z,5.70
2018-07-12T11:47:51.913Z,7.33
2018-07-12T11:50:20.843Z,7.17
2018-07-12T11:52:49.822Z,8.30
2018-07-12T11:55:18.792Z,6.10
2018-07-12T11:57:47.787Z,8.97
2018-07-12T12:00:16.715Z,8.40
2018-07-12T12:02:45.771Z,10.47
2018-07-12T12:05:14.712Z,7.50
2018-07-12T12:07:43.747Z,9.07
2018-07-12T12:10:12.692Z,6.97
2018-07-12T12:12:41.649Z,9.03
2018-07-12T12:15:10.606Z,7.40
2018-07-12T12:17:39.556Z,8.93
2018-07-12T12:20:08.687Z,7.23
2018-07-12T12:22:37.640Z,6.90
2018-07-12T12:25:06.708Z,9.77
2018-07-12T12:27:35.717Z,9.33
2018-07-12T12:30:04.682Z,10.20
2018-07-12T12:32:33.639Z,11.37
2018-07-12T12:35:02.598Z,6.57
2018-07-12T12:37:31.540Z,8.93
2018-07-12T12:40:00.497Z,7.07
2018-07-12T12:42:29.447Z,6.77
2018-07-12T12:44:58.413Z,12.23
2018-07-12T12:47:27.383Z,18.00
2018-07-12T12:49:56.311Z,15.90
2018-07-12T12:52:25.299Z,7.90
2018-07-12T12:54:54.239Z,6.33
2018-07-12T12:57:23.180Z,6.50
2018-07-12T12:59:52.120Z,7.50
2018-07-12T13:02:21.126Z,7.27
2018-07-12T13:04:50.100Z,9.07
2018-07-12T13:07:19.042Z,6.10
2018-07-12T13:09:48.030Z,6.90
2018-07-12T13:12:16.963Z,9.23
2018-07-12T13:14:46.175Z,6.83
2018-07-12T13:17:15.249Z,7.70
2018-07-12T13:19:44.235Z,6.50
2018-07-12T13:22:13.176Z,6.10
2018-07-12T13:24:42.195Z,6.87
2018-07-12T13:27:11.136Z,8.03
2018-07-12T13:29:39.888Z,6.10
2018-07-12T13:32:08.731Z,5.63
2018-07-12T13:34:37.696Z,6.17
2018-07-12T13:37:06.642Z,6.47
2018-07-12T13:39:35.748Z,5.20
2018-07-12T13:42:04.764Z,6.53
2018-07-12T13:44:33.715Z,6.47
2018-07-12T13:47:02.700Z,6.07
2018-07-12T13:49:31.689Z,6.90
2018-07-12T13:52:00.635Z,7.67
2018-07-12T13:54:29.564Z,7.53
2018-07-12T13:56:58.499Z,8.03
2018-07-12T13:59:27.435Z,6.80
2018-07-12T14:01:56.396Z,7.03
2018-07-12T14:04:25.372Z,4.97
2018-07-12T14:06:55.179Z,9.07
2018-07-12T14:09:24.148Z,6.70
2018-07-12T14:11:53.080Z,4.50
2018-07-12T14:14:22.145Z,5.60
2018-07-12T14:16:51.178Z,6.53
2018-07-12T14:19:20.135Z,6.47
2018-07-12T14:21:49.117Z,5.93
2018-07-12T14:24:18.168Z,5.00
2018-07-12T14:26:47.155Z,8.10
2018-07-12T14:29:15.966Z,7.13
2018-07-12T14:31:44.800Z,6.40
2018-07-12T14:34:13.765Z,5.40
2018-07-12T14:36:43.019Z,5.90
2018-07-12T14:39:11.959Z,5.20
2018-07-12T14:41:41.003Z,7.30
2018-07-12T14:44:09.919Z,8.70
2018-07-12T14:46:38.904Z,7.63
2018-07-12T14:49:07.899Z,7.87
2018-07-12T14:51:36.818Z,9.50
2018-07-12T14:54:05.766Z,9.70
2018-07-12T14:56:34.723Z,5.70
2018-07-12T14:59:03.889Z,7.30
2018-07-12T15:01:33.023Z,9.20
2018-07-12T15:04:01.953Z,7.33
2018-07-12T15:06:30.899Z,8.57
2018-07-12T15:08:59.871Z,8.37
2018-07-12T15:11:28.779Z,6.80
2018-07-12T15:13:57.707Z,6.03
2018-07-12T15:16:26.665Z,10.67
2018-07-12T15:18:55.636Z,7.33
2018-07-12T15:21:24.619Z,7.60
2018-07-12T15:23:53.563Z,5.80
2018-07-12T15:26:22.591Z,6.27
2018-07-12T15:28:51.511Z,6.80
2018-07-12T15:31:20.455Z,7.00
2018-07-12T15:33:49.384Z,7.47
2018-07-12T15:36:18.354Z,7.33
2018-07-12T15:38:47.377Z,6.97
2018-07-12T15:41:16.319Z,7.00
2018-07-12T15:43:45.258Z,6.80
2018-07-12T15:46:14.215Z,6.20
2018-07-12T15:48:43.162Z,6.93
2018-07-12T15:51:12.128Z,6.13
2018-07-12T15:53:41.091Z,8.57
2018-07-12T15:56:10.047Z,7.77
2018-07-12T15:58:38.971Z,8.70
2018-07-12T16:01:07.989Z,8.97
2018-07-12T16:03:36.946Z,7.30
2018-07-12T16:06:05.871Z,6.10
2018-07-12T16:08:34.940Z,8.30
2018-07-12T16:11:03.957Z,6.80
2018-07-12T16:13:32.911Z,6.67
2018-07-12T16:16:01.840Z,7.07
2018-07-12T16:18:30.627Z,10.83
2018-07-12T16:20:59.459Z,7.13
2018-07-12T16:23:28.523Z,5.83
2018-07-12T16:25:58.485Z,6.63
2018-07-12T16:28:27.439Z,5.90
2018-07-12T16:30:56.407Z,7.10
2018-07-12T16:33:25.559Z,5.50
2018-07-12T16:35:54.476Z,6.07
2018-07-12T16:38:23.433Z,4.53
2018-07-12T16:40:52.393Z,5.20
2018-07-12T16:43:21.324Z,6.23
2018-07-12T16:45:50.274Z,6.77
2018-07-12T16:48:19.222Z,5.17
2018-07-12T16:50:48.187Z,5.50
2018-07-12T16:53:17.153Z,9.07
2018-07-12T16:55:46.100Z,5.93
2018-07-12T16:58:15.020Z,7.40
2018-07-12T17:00:43.983Z,8.47
2018-07-12T17:03:12.714Z,5.40
2018-07-12T17:05:41.867Z,10.13
2018-07-12T17:08:10.797Z,4.97
2018-07-12T17:10:39.747Z,5.23
2018-07-12T17:13:08.722Z,7.37
2018-07-12T17:15:37.683Z,5.60
2018-07-12T17:18:07.178Z,7.73
2018-07-12T17:20:36.115Z,5.20
2018-07-12T17:23:05.071Z,7.30
2018-07-12T17:25:34.017Z,5.57
2018-07-12T17:28:02.971Z,4.93
2018-07-12T17:30:31.921Z,6.10
2018-07-12T17:33:00.881Z,4.87
2018-07-12T17:35:29.822Z,5.57
2018-07-12T17:37:58.789Z,5.00
2018-07-12T17:40:27.751Z,9.53
2018-07-12T17:42:56.715Z,8.03
2018-07-12T17:45:25.712Z,9.17
2018-07-12T17:47:54.655Z,6.63
2018-07-12T17:50:23.643Z,10.40
2018-07-12T17:52:52.632Z,8.80
2018-07-12T17:55:21.574Z,9.63
2018-07-12T17:57:50.549Z,8.10
2018-07-12T18:00:19.495Z,12.57
2018-07-12T18:02:48.828Z,9.87
2018-07-12T18:05:17.813Z,11.23
2018-07-12T18:07:46.728Z,8.03
2018-07-12T18:10:15.655Z,9.80
2018-07-12T18:12:44.699Z,9.13
2018-07-12T18:15:13.647Z,10.80
2018-07-12T18:17:42.610Z,11.33
2018-07-12T18:20:11.569Z,8.23
2018-07-12T18:22:40.511Z,8.97
2018-07-12T18:25:09.536Z,7.87
2018-07-12T18:27:38.475Z,11.73
2018-07-12T18:30:07.869Z,9.00
2018-07-12T18:32:37.043Z,10.50
2018-07-12T18:35:06.172Z,10.90
2018-07-12T18:37:35.347Z,9.57
2018-07-12T18:40:04.312Z,10.97
2018-07-12T18:42:33.267Z,9.27
2018-07-12T18:45:02.232Z,9.73
2018-07-12T18:47:31.264Z,10.20
2018-07-12T18:50:00.243Z,10.80
2018-07-12T18:52:29.196Z,12.43
2018-07-12T18:54:58.194Z,10.10
2018-07-12T18:57:27.115Z,11.70
2018-07-12T18:59:56.067Z,12.17
2018-07-12T19:02:25.065Z,10.27
2018-07-12T19:04:54.096Z,12.00
2018-07-12T19:07:23.070Z,12.20
2018-07-12T19:09:52.023Z,14.90
2018-07-12T19:12:20.998Z,12.83
2018-07-12T19:14:50.007Z,11.70
2018-07-12T19:17:19.004Z,12.57
2018-07-12T19:19:47.974Z,14.03
2018-07-12T19:22:16.966Z,11.97
2018-07-12T19:24:45.968Z,14.37
2018-07-12T19:27:14.939Z,14.07
2018-07-12T19:29:43.894Z,14.37
2018-07-12T19:32:12.851Z,13.60
2018-07-12T19:34:41.840Z,18.57
2018-07-12T19:37:10.786Z,14.90
2018-07-12T19:39:39.747Z,17.00
2018-07-12T19:42:08.704Z,13.67
2018-07-12T19:44:37.816Z,15.47
2018-07-12T19:47:06.844Z,14.30
2018-07-12T19:49:35.795Z,14.10
2018-07-12T19:52:04.682Z,14.83
2018-07-12T19:54:33.580Z,17.60
2018-07-12T19:57:02.523Z,16.10
2018-07-12T19:59:31.490Z,18.47
2018-07-12T20:02:00.546Z,16.13
2018-07-12T20:04:29.576Z,17.20
2018-07-12T20:06:58.542Z,16.50
2018-07-12T20:09:27.530Z,19.40
2018-07-12T20:11:56.522Z,16.57
2018-07-12T20:14:25.496Z,12.60
2018-07-12T20:16:54.445Z,13.63
2018-07-12T20:19:23.407Z,17.53
2018-07-12T20:21:52.379Z,13.37
2018-07-12T20:24:21.399Z,12.60
2018-07-12T20:26:50.418Z,13.50
2018-07-12T20:29:19.219Z,14.00
2018-07-12T20:31:48.085Z,9.63
2018-07-12T20:34:17.016Z,14.37
2018-07-12T20:36:45.995Z,13.30
2018-07-12T20:39:15.327Z,8.87
2018-07-12T20:41:44.664Z,12.50
2018-07-12T20:44:13.692Z,10.17
2018-07-12T20:46:42.457Z,10.50
2018-07-12T20:49:11.351Z,9.00
2018-07-12T20:51:40.338Z,13.40
2018-07-12T20:54:09.315Z,14.70
2018-07-12T20:56:38.302Z,11.33
2018-07-12T20:59:07.241Z,17.83
2018-07-12T21:01:36.530Z,14.43
2018-07-12T21:04:05.987Z,9.73
2018-07-12T21:06:35.157Z,11.00
2018-07-12T21:09:06.495Z,11.07
2018-07-12T21:11:35.661Z,13.90
2018-07-12T21:14:04.776Z,12.70
2018-07-12T21:16:33.755Z,13.37
2018-07-12T21:19:02.731Z,13.47
2018-07-12T21:21:31.731Z,12.07
2018-07-12T21:24:00.740Z,11.83
2018-07-12T21:26:29.713Z,11.40
2018-07-12T21:28:58.656Z,12.93
2018-07-12T21:31:27.599Z,14.00
2018-07-12T21:33:56.819Z,12.80
2018-07-12T21:36:25.850Z,13.63
2018-07-12T21:38:54.839Z,11.80
2018-07-12T21:41:23.922Z,12.63
2018-07-12T21:43:52.921Z,15.37
2018-07-12T21:46:21.885Z,17.27
2018-07-12T21:48:50.916Z,13.70
2018-07-12T21:51:19.883Z,14.20
2018-07-12T21:53:48.911Z,11.90
2018-07-12T21:56:17.851Z,12.00
2018-07-12T21:58:46.635Z,13.30
2018-07-12T22:01:15.528Z,12.40
2018-07-12T22:03:44.503Z,13.63
2018-07-12T22:06:14.012Z,11.23
2018-07-12T22:08:42.956Z,11.80
2018-07-12T22:11:11.919Z,15.10
2018-07-12T22:13:40.867Z,15.07
2018-07-12T22:16:09.830Z,13.43
2018-07-12T22:18:38.773Z,13.50
2018-07-12T22:21:07.807Z,9.87
2018-07-12T22:23:36.748Z,12.50
2018-07-12T22:26:05.807Z,11.70
2018-07-12T22:28:34.767Z,13.07
2018-07-12T22:31:03.726Z,10.60
2018-07-12T22:33:32.700Z,8.73
2018-07-12T22:36:01.700Z,14.80
2018-07-12T22:38:30.736Z,12.00
2018-07-12T22:40:59.739Z,11.13
2018-07-12T22:43:28.729Z,11.97
2018-07-12T22:45:57.667Z,13.67
2018-07-12T22:48:26.945Z,13.70
2018-07-12T22:50:55.843Z,10.67
2018-07-12T22:53:24.800Z,13.07
2018-07-12T22:55:53.793Z,14.90
2018-07-12T22:58:22.788Z,11.80
2018-07-12T23:00:51.803Z,12.53
2018-07-12T23:03:20.791Z,10.50
2018-07-12T23:05:49.771Z,13.20
2018-07-12T23:08:18.772Z,12.30
2018-07-12T23:10:47.717Z,11.43
2018-07-12T23:13:16.668Z,11.73
2018-07-12T23:15:45.606Z,10.83
2018-07-12T23:18:14.555Z,13.10
2018-07-12T23:20:43.528Z,11.73
2018-07-12T23:23:12.486Z,12.33
2018-07-12T23:25:41.466Z,13.83
2018-07-12T23:28:10.433Z,10.23
2018-07-12T23:30:39.389Z,11.13
2018-07-12T23:33:08.344Z,10.87
2018-07-12T23:35:37.318Z,11.23
2018-07-12T23:38:06.260Z,10.43
2018-07-12T23:40:35.275Z,11.30
2018-07-12T23:43:04.346Z,11.70
2018-07-12T23:45:33.281Z,10.63
2018-07-12T23:48:02.247Z,12.27
2018-07-12T23:50:31.266Z,11.43
2018-07-12T23:53:00.239Z,11.43
2018-07-12T23:55:29.208Z,11.97
2018-07-12T23:57:58.219Z,10.53
